KEND/END METAR and TAF weather

Enter ICAO airport designator
Station Type Date Time Source
KEND METAR 2021/02/25 14:56 UTC NOAA

KEND 251456Z AUTO 04011KT 10SM CLR 02/M02 A3038 RMK AO2 SLP298 T00181020 50009 $


Station Type Date Time Source
KEND Decoded METAR 2021/02/25 14:56 UTC NOAA

Vance Air Force Base / Enid, OK, United States (KEND) 36-20N 097-55W
Feb 25, 2021 - 09:56 AM EST / 2021.02.25 1456 UTC
Wind: from the NE (040 degrees) at 13 MPH (11 KT):0
Visibility: 10 mile(s):0
Sky conditions: clear
Temperature: 35.2 F (1.8 C)
Dew Point: 28.4 F (-2.0 C)
Relative Humidity: 75%
Pressure (altimeter): 30.38 in. Hg (1028 hPa)
Pressure tendency: 0.03 inches (0.9 hPa) higher than three hours ago
ob: KEND 251456Z AUTO 04011KT 10SM CLR 02/M02 A3038 RMK AO2 SLP298 T00181020 50009
cycle: 15

Station Type Date Time Source
KEND TAF 2021/02/25 10:03 UTC NOAA

TAF KEND 251000Z 2510/2616 05010KT 9999 FEW250 QNH3030INS
BECMG 2517/2518 05010G15KT 9999 SCT120 SCT200 QNH3019INS
BECMG 2523/2524 07009KT 9999 BKN080 620803 QNH3009INS
BECMG 2608/2609 VRB06KT 9999 BKN020 QNH2998INS
BECMG 2611/2612 VRB06KT 8000 BR OVC012 QNH2996INS
TEMPO 2612/2616 6000 BR OVC009 TX09/2522Z TNM02/2510Z

Example: see airport list